sensor_id;sensor_type;location;lat;lon;timestamp;P1;durP1;ratioP1;P2;durP2;ratioP2
74959;SDS011;63518;49.572;1.106;2023-11-22T00:00:19;3.42;;;1.10;;
74959;SDS011;63518;49.572;1.106;2023-11-22T00:02:47;2.78;;;0.65;;
74959;SDS011;63518;49.572;1.106;2023-11-22T00:05:13;2.63;;;1.00;;
74959;SDS011;63518;49.572;1.106;2023-11-22T00:07:40;2.78;;;0.77;;
74959;SDS011;63518;49.572;1.106;2023-11-22T00:10:08;2.47;;;0.63;;
74959;SDS011;63518;49.572;1.106;2023-11-22T00:12:35;3.42;;;0.80;;
74959;SDS011;63518;49.572;1.106;2023-11-22T00:15:05;3.83;;;0.65;;
74959;SDS011;63518;49.572;1.106;2023-11-22T00:17:34;4.05;;;1.15;;
74959;SDS011;63518;49.572;1.106;2023-11-22T00:20:01;4.18;;;1.10;;
74959;SDS011;63518;49.572;1.106;2023-11-22T00:22:32;4.10;;;0.93;;
74959;SDS011;63518;49.572;1.106;2023-11-22T00:24:59;3.15;;;1.00;;
74959;SDS011;63518;49.572;1.106;2023-11-22T00:27:28;3.00;;;1.02;;
74959;SDS011;63518;49.572;1.106;2023-11-22T00:29:56;3.60;;;0.80;;
74959;SDS011;63518;49.572;1.106;2023-11-22T00:32:23;2.22;;;0.60;;
74959;SDS011;63518;49.572;1.106;2023-11-22T00:34:52;3.97;;;0.82;;
74959;SDS011;63518;49.572;1.106;2023-11-22T00:37:19;4.50;;;1.05;;
74959;SDS011;63518;49.572;1.106;2023-11-22T00:39:46;5.50;;;1.17;;
74959;SDS011;63518;49.572;1.106;2023-11-22T00:42:13;4.45;;;1.75;;
74959;SDS011;63518;49.572;1.106;2023-11-22T00:44:39;7.60;;;1.80;;
74959;SDS011;63518;49.572;1.106;2023-11-22T00:47:06;5.15;;;1.35;;
74959;SDS011;63518;49.572;1.106;2023-11-22T00:49:33;3.72;;;0.90;;
74959;SDS011;63518;49.572;1.106;2023-11-22T00:52:00;6.75;;;2.00;;
74959;SDS011;63518;49.572;1.106;2023-11-22T00:54:29;4.10;;;1.17;;
74959;SDS011;63518;49.572;1.106;2023-11-22T00:56:56;4.68;;;1.77;;
74959;SDS011;63518;49.572;1.106;2023-11-22T00:59:22;8.77;;;2.10;;
74959;SDS011;63518;49.572;1.106;2023-11-22T01:01:49;6.28;;;1.63;;
74959;SDS011;63518;49.572;1.106;2023-11-22T01:04:16;6.85;;;2.20;;
74959;SDS011;63518;49.572;1.106;2023-11-22T01:06:42;4.47;;;1.50;;
74959;SDS011;63518;49.572;1.106;2023-11-22T01:09:09;8.52;;;2.60;;
74959;SDS011;63518;49.572;1.106;2023-11-22T01:11:38;4.75;;;2.03;;
74959;SDS011;63518;49.572;1.106;2023-11-22T01:14:05;6.47;;;1.92;;
74959;SDS011;63518;49.572;1.106;2023-11-22T01:16:32;2.53;;;0.73;;
74959;SDS011;63518;49.572;1.106;2023-11-22T01:18:59;5.90;;;1.73;;
74959;SDS011;63518;49.572;1.106;2023-11-22T01:21:27;7.90;;;1.52;;
74959;SDS011;63518;49.572;1.106;2023-11-22T01:23:54;9.43;;;2.38;;
74959;SDS011;63518;49.572;1.106;2023-11-22T01:26:21;8.75;;;2.95;;
74959;SDS011;63518;49.572;1.106;2023-11-22T01:28:47;5.47;;;2.10;;
74959;SDS011;63518;49.572;1.106;2023-11-22T01:31:14;6.03;;;2.45;;
74959;SDS011;63518;49.572;1.106;2023-11-22T01:33:41;7.88;;;2.38;;
74959;SDS011;63518;49.572;1.106;2023-11-22T01:36:08;8.65;;;3.08;;
74959;SDS011;63518;49.572;1.106;2023-11-22T01:38:35;7.28;;;2.60;;
74959;SDS011;63518;49.572;1.106;2023-11-22T01:41:02;7.60;;;2.92;;
74959;SDS011;63518;49.572;1.106;2023-11-22T01:43:28;7.43;;;3.15;;
74959;SDS011;63518;49.572;1.106;2023-11-22T01:45:55;9.95;;;3.00;;
74959;SDS011;63518;49.572;1.106;2023-11-22T01:48:22;9.90;;;3.05;;
74959;SDS011;63518;49.572;1.106;2023-11-22T01:50:49;6.68;;;2.35;;
74959;SDS011;63518;49.572;1.106;2023-11-22T01:53:17;12.00;;;3.05;;
74959;SDS011;63518;49.572;1.106;2023-11-22T01:55:45;7.78;;;2.75;;
74959;SDS011;63518;49.572;1.106;2023-11-22T01:58:13;8.70;;;3.25;;
74959;SDS011;63518;49.572;1.106;2023-11-22T02:00:49;9.07;;;3.45;;
74959;SDS011;63518;49.572;1.106;2023-11-22T02:03:18;6.63;;;2.63;;
74959;SDS011;63518;49.572;1.106;2023-11-22T02:05:45;7.85;;;2.47;;
74959;SDS011;63518;49.572;1.106;2023-11-22T02:08:12;9.02;;;3.25;;
74959;SDS011;63518;49.572;1.106;2023-11-22T02:10:39;7.32;;;2.60;;
74959;SDS011;63518;49.572;1.106;2023-11-22T02:13:07;9.38;;;3.40;;
74959;SDS011;63518;49.572;1.106;2023-11-22T02:15:34;10.57;;;2.97;;
74959;SDS011;63518;49.572;1.106;2023-11-22T02:18:04;9.63;;;3.60;;
74959;SDS011;63518;49.572;1.106;2023-11-22T02:20:39;8.52;;;3.28;;
74959;SDS011;63518;49.572;1.106;2023-11-22T02:23:09;9.15;;;3.00;;
74959;SDS011;63518;49.572;1.106;2023-11-22T02:25:37;9.75;;;3.60;;
74959;SDS011;63518;49.572;1.106;2023-11-22T02:28:05;9.18;;;3.78;;
74959;SDS011;63518;49.572;1.106;2023-11-22T02:30:35;10.00;;;3.47;;
74959;SDS011;63518;49.572;1.106;2023-11-22T02:33:02;10.15;;;3.80;;
74959;SDS011;63518;49.572;1.106;2023-11-22T02:35:31;7.53;;;3.30;;
74959;SDS011;63518;49.572;1.106;2023-11-22T02:37:59;10.68;;;4.22;;
74959;SDS011;63518;49.572;1.106;2023-11-22T02:40:27;7.93;;;2.97;;
74959;SDS011;63518;49.572;1.106;2023-11-22T02:42:55;7.40;;;2.10;;
74959;SDS011;63518;49.572;1.106;2023-11-22T02:45:28;10.43;;;3.50;;
74959;SDS011;63518;49.572;1.106;2023-11-22T02:47:55;7.10;;;2.67;;
74959;SDS011;63518;49.572;1.106;2023-11-22T02:50:22;9.93;;;3.20;;
74959;SDS011;63518;49.572;1.106;2023-11-22T02:52:49;8.80;;;2.88;;
74959;SDS011;63518;49.572;1.106;2023-11-22T02:55:15;6.82;;;2.95;;
74959;SDS011;63518;49.572;1.106;2023-11-22T02:57:42;8.93;;;2.78;;
74959;SDS011;63518;49.572;1.106;2023-11-22T03:00:09;8.38;;;3.20;;
74959;SDS011;63518;49.572;1.106;2023-11-22T03:02:42;6.65;;;2.80;;
74959;SDS011;63518;49.572;1.106;2023-11-22T03:05:09;8.63;;;3.40;;
74959;SDS011;63518;49.572;1.106;2023-11-22T03:07:37;7.32;;;2.38;;
74959;SDS011;63518;49.572;1.106;2023-11-22T03:10:04;8.38;;;2.92;;
74959;SDS011;63518;49.572;1.106;2023-11-22T03:12:31;8.95;;;2.97;;
74959;SDS011;63518;49.572;1.106;2023-11-22T03:14:58;10.07;;;3.88;;
74959;SDS011;63518;49.572;1.106;2023-11-22T03:17:26;7.20;;;2.35;;
74959;SDS011;63518;49.572;1.106;2023-11-22T03:19:59;6.95;;;2.47;;
74959;SDS011;63518;49.572;1.106;2023-11-22T03:22:27;7.63;;;3.13;;
74959;SDS011;63518;49.572;1.106;2023-11-22T03:24:57;8.18;;;3.00;;
74959;SDS011;63518;49.572;1.106;2023-11-22T03:27:25;7.18;;;2.30;;
74959;SDS011;63518;49.572;1.106;2023-11-22T03:29:52;10.15;;;3.00;;
74959;SDS011;63518;49.572;1.106;2023-11-22T03:32:19;8.07;;;3.00;;
74959;SDS011;63518;49.572;1.106;2023-11-22T03:34:46;10.65;;;3.05;;
74959;SDS011;63518;49.572;1.106;2023-11-22T03:37:13;11.13;;;3.42;;
74959;SDS011;63518;49.572;1.106;2023-11-22T03:39:39;7.88;;;3.17;;
74959;SDS011;63518;49.572;1.106;2023-11-22T03:42:06;8.88;;;3.03;;
74959;SDS011;63518;49.572;1.106;2023-11-22T03:44:33;8.07;;;3.45;;
74959;SDS011;63518;49.572;1.106;2023-11-22T03:47:00;6.57;;;2.60;;
74959;SDS011;63518;49.572;1.106;2023-11-22T03:49:26;8.10;;;2.40;;
74959;SDS011;63518;49.572;1.106;2023-11-22T03:51:54;7.68;;;2.92;;
74959;SDS011;63518;49.572;1.106;2023-11-22T03:54:21;8.68;;;2.63;;
74959;SDS011;63518;49.572;1.106;2023-11-22T03:56:47;7.03;;;2.45;;
74959;SDS011;63518;49.572;1.106;2023-11-22T03:59:14;6.90;;;2.65;;
74959;SDS011;63518;49.572;1.106;2023-11-22T04:01:41;10.32;;;3.28;;
74959;SDS011;63518;49.572;1.106;2023-11-22T04:04:08;10.45;;;2.63;;
74959;SDS011;63518;49.572;1.106;2023-11-22T04:06:36;10.18;;;3.72;;
74959;SDS011;63518;49.572;1.106;2023-11-22T04:09:03;9.95;;;3.10;;
74959;SDS011;63518;49.572;1.106;2023-11-22T04:11:30;9.25;;;2.67;;
74959;SDS011;63518;49.572;1.106;2023-11-22T04:13:57;11.43;;;3.10;;
74959;SDS011;63518;49.572;1.106;2023-11-22T04:16:24;7.82;;;2.80;;
74959;SDS011;63518;49.572;1.106;2023-11-22T04:18:52;6.85;;;1.90;;
74959;SDS011;63518;49.572;1.106;2023-11-22T04:21:19;8.48;;;3.85;;
74959;SDS011;63518;49.572;1.106;2023-11-22T04:23:45;11.20;;;3.17;;
74959;SDS011;63518;49.572;1.106;2023-11-22T04:26:12;8.50;;;2.50;;
74959;SDS011;63518;49.572;1.106;2023-11-22T04:28:39;11.82;;;2.70;;
74959;SDS011;63518;49.572;1.106;2023-11-22T04:31:06;7.60;;;2.17;;
74959;SDS011;63518;49.572;1.106;2023-11-22T04:33:35;8.38;;;2.92;;
74959;SDS011;63518;49.572;1.106;2023-11-22T04:36:02;7.78;;;2.72;;
74959;SDS011;63518;49.572;1.106;2023-11-22T04:38:29;6.40;;;1.83;;
74959;SDS011;63518;49.572;1.106;2023-11-22T04:40:56;5.32;;;1.52;;
74959;SDS011;63518;49.572;1.106;2023-11-22T04:43:23;6.28;;;2.05;;
74959;SDS011;63518;49.572;1.106;2023-11-22T04:45:49;5.78;;;2.08;;
74959;SDS011;63518;49.572;1.106;2023-11-22T04:48:16;7.85;;;2.28;;
74959;SDS011;63518;49.572;1.106;2023-11-22T04:50:43;5.47;;;1.75;;
74959;SDS011;63518;49.572;1.106;2023-11-22T04:53:10;5.47;;;1.80;;
74959;SDS011;63518;49.572;1.106;2023-11-22T04:55:37;7.47;;;1.98;;
74959;SDS011;63518;49.572;1.106;2023-11-22T04:58:04;8.30;;;2.70;;
74959;SDS011;63518;49.572;1.106;2023-11-22T05:00:30;8.13;;;2.40;;
74959;SDS011;63518;49.572;1.106;2023-11-22T05:02:57;8.40;;;2.33;;
74959;SDS011;63518;49.572;1.106;2023-11-22T05:05:24;9.07;;;2.75;;
74959;SDS011;63518;49.572;1.106;2023-11-22T05:07:51;7.32;;;2.90;;
74959;SDS011;63518;49.572;1.106;2023-11-22T05:10:17;7.50;;;2.90;;
74959;SDS011;63518;49.572;1.106;2023-11-22T05:12:44;6.55;;;2.25;;
74959;SDS011;63518;49.572;1.106;2023-11-22T05:15:11;7.68;;;2.33;;
74959;SDS011;63518;49.572;1.106;2023-11-22T05:17:38;9.05;;;2.92;;
74959;SDS011;63518;49.572;1.106;2023-11-22T05:20:05;8.50;;;2.42;;
74959;SDS011;63518;49.572;1.106;2023-11-22T05:22:36;7.22;;;2.80;;
74959;SDS011;63518;49.572;1.106;2023-11-22T05:25:04;9.27;;;2.85;;
74959;SDS011;63518;49.572;1.106;2023-11-22T05:27:33;5.25;;;2.03;;
74959;SDS011;63518;49.572;1.106;2023-11-22T05:30:00;8.65;;;2.65;;
74959;SDS011;63518;49.572;1.106;2023-11-22T05:32:28;8.13;;;2.55;;
74959;SDS011;63518;49.572;1.106;2023-11-22T05:34:55;7.75;;;2.80;;
74959;SDS011;63518;49.572;1.106;2023-11-22T05:37:22;7.03;;;1.85;;
74959;SDS011;63518;49.572;1.106;2023-11-22T05:39:50;4.47;;;1.05;;
74959;SDS011;63518;49.572;1.106;2023-11-22T05:42:17;6.88;;;1.85;;
74959;SDS011;63518;49.572;1.106;2023-11-22T05:44:44;7.80;;;2.15;;
74959;SDS011;63518;49.572;1.106;2023-11-22T05:47:11;3.75;;;1.00;;
74959;SDS011;63518;49.572;1.106;2023-11-22T05:49:39;4.20;;;0.93;;
74959;SDS011;63518;49.572;1.106;2023-11-22T05:52:06;6.20;;;2.05;;
74959;SDS011;63518;49.572;1.106;2023-11-22T05:54:33;5.13;;;1.80;;
74959;SDS011;63518;49.572;1.106;2023-11-22T05:57:00;5.93;;;1.67;;
74959;SDS011;63518;49.572;1.106;2023-11-22T05:59:26;6.55;;;1.40;;
74959;SDS011;63518;49.572;1.106;2023-11-22T06:01:53;5.35;;;1.80;;
74959;SDS011;63518;49.572;1.106;2023-11-22T06:04:20;7.72;;;2.30;;
74959;SDS011;63518;49.572;1.106;2023-11-22T06:06:47;6.28;;;1.95;;
74959;SDS011;63518;49.572;1.106;2023-11-22T06:09:14;6.30;;;2.22;;
74959;SDS011;63518;49.572;1.106;2023-11-22T06:11:41;5.85;;;1.60;;
74959;SDS011;63518;49.572;1.106;2023-11-22T06:14:08;8.30;;;2.17;;
74959;SDS011;63518;49.572;1.106;2023-11-22T06:16:34;6.60;;;1.77;;
74959;SDS011;63518;49.572;1.106;2023-11-22T06:19:01;4.18;;;1.27;;
74959;SDS011;63518;49.572;1.106;2023-11-22T06:21:28;7.03;;;2.47;;
74959;SDS011;63518;49.572;1.106;2023-11-22T06:23:55;7.22;;;2.65;;
74959;SDS011;63518;49.572;1.106;2023-11-22T06:26:25;6.47;;;2.35;;
74959;SDS011;63518;49.572;1.106;2023-11-22T06:28:52;5.45;;;2.05;;
74959;SDS011;63518;49.572;1.106;2023-11-22T06:31:19;6.15;;;1.95;;
74959;SDS011;63518;49.572;1.106;2023-11-22T06:33:45;7.50;;;2.20;;
74959;SDS011;63518;49.572;1.106;2023-11-22T06:36:12;4.68;;;1.25;;
74959;SDS011;63518;49.572;1.106;2023-11-22T06:38:41;7.75;;;2.00;;
74959;SDS011;63518;49.572;1.106;2023-11-22T06:41:08;6.32;;;1.98;;
74959;SDS011;63518;49.572;1.106;2023-11-22T06:43:35;10.55;;;3.58;;
74959;SDS011;63518;49.572;1.106;2023-11-22T06:46:02;9.07;;;1.92;;
74959;SDS011;63518;49.572;1.106;2023-11-22T06:48:32;8.20;;;2.25;;
74959;SDS011;63518;49.572;1.106;2023-11-22T06:51:00;4.45;;;1.58;;
74959;SDS011;63518;49.572;1.106;2023-11-22T06:53:27;6.07;;;1.80;;
74959;SDS011;63518;49.572;1.106;2023-11-22T06:55:54;6.00;;;2.10;;
74959;SDS011;63518;49.572;1.106;2023-11-22T06:58:21;18.90;;;5.35;;
74959;SDS011;63518;49.572;1.106;2023-11-22T07:00:48;13.57;;;4.57;;
74959;SDS011;63518;49.572;1.106;2023-11-22T07:03:15;11.48;;;4.45;;
74959;SDS011;63518;49.572;1.106;2023-11-22T07:05:43;13.93;;;5.35;;
74959;SDS011;63518;49.572;1.106;2023-11-22T07:08:10;11.50;;;4.97;;
74959;SDS011;63518;49.572;1.106;2023-11-22T07:10:43;12.82;;;5.22;;
74959;SDS011;63518;49.572;1.106;2023-11-22T07:13:11;7.35;;;2.63;;
74959;SDS011;63518;49.572;1.106;2023-11-22T07:15:39;13.38;;;3.70;;
74959;SDS011;63518;49.572;1.106;2023-11-22T07:18:07;6.18;;;2.17;;
74959;SDS011;63518;49.572;1.106;2023-11-22T07:20:36;7.22;;;2.47;;
74959;SDS011;63518;49.572;1.106;2023-11-22T07:23:03;4.63;;;1.77;;
74959;SDS011;63518;49.572;1.106;2023-11-22T07:25:30;10.75;;;3.05;;
74959;SDS011;63518;49.572;1.106;2023-11-22T07:27:57;6.88;;;1.98;;
74959;SDS011;63518;49.572;1.106;2023-11-22T07:30:25;16.20;;;5.50;;
74959;SDS011;63518;49.572;1.106;2023-11-22T07:32:56;16.13;;;5.95;;
74959;SDS011;63518;49.572;1.106;2023-11-22T07:35:25;8.68;;;2.78;;
74959;SDS011;63518;49.572;1.106;2023-11-22T07:37:54;6.55;;;2.08;;
74959;SDS011;63518;49.572;1.106;2023-11-22T07:40:21;4.18;;;1.05;;
74959;SDS011;63518;49.572;1.106;2023-11-22T07:42:49;6.88;;;1.27;;
74959;SDS011;63518;49.572;1.106;2023-11-22T07:45:15;3.20;;;1.10;;
74959;SDS011;63518;49.572;1.106;2023-11-22T07:47:43;4.75;;;1.13;;
74959;SDS011;63518;49.572;1.106;2023-11-22T07:50:11;3.42;;;0.85;;
74959;SDS011;63518;49.572;1.106;2023-11-22T07:52:38;8.73;;;1.35;;
74959;SDS011;63518;49.572;1.106;2023-11-22T07:55:07;3.03;;;0.70;;
74959;SDS011;63518;49.572;1.106;2023-11-22T07:57:34;5.10;;;0.98;;
74959;SDS011;63518;49.572;1.106;2023-11-22T08:00:01;2.95;;;0.80;;
74959;SDS011;63518;49.572;1.106;2023-11-22T08:02:31;2.92;;;0.82;;
74959;SDS011;63518;49.572;1.106;2023-11-22T08:05:00;2.55;;;1.02;;
74959;SDS011;63518;49.572;1.106;2023-11-22T08:07:29;2.88;;;1.00;;
74959;SDS011;63518;49.572;1.106;2023-11-22T08:09:56;4.18;;;1.27;;
74959;SDS011;63518;49.572;1.106;2023-11-22T08:12:23;3.53;;;1.05;;
74959;SDS011;63518;49.572;1.106;2023-11-22T08:14:49;2.67;;;0.98;;
74959;SDS011;63518;49.572;1.106;2023-11-22T08:17:18;5.13;;;1.27;;
74959;SDS011;63518;49.572;1.106;2023-11-22T08:19:46;5.15;;;1.33;;
74959;SDS011;63518;49.572;1.106;2023-11-22T08:22:14;4.80;;;1.40;;
74959;SDS011;63518;49.572;1.106;2023-11-22T08:24:41;3.10;;;1.15;;
74959;SDS011;63518;49.572;1.106;2023-11-22T08:27:07;2.70;;;0.75;;
74959;SDS011;63518;49.572;1.106;2023-11-22T08:29:34;2.80;;;0.90;;
74959;SDS011;63518;49.572;1.106;2023-11-22T08:32:01;4.30;;;1.25;;
74959;SDS011;63518;49.572;1.106;2023-11-22T08:34:28;5.43;;;1.55;;
74959;SDS011;63518;49.572;1.106;2023-11-22T08:36:55;4.72;;;1.45;;
74959;SDS011;63518;49.572;1.106;2023-11-22T08:39:24;5.47;;;1.50;;
74959;SDS011;63518;49.572;1.106;2023-11-22T08:41:50;3.85;;;0.88;;
74959;SDS011;63518;49.572;1.106;2023-11-22T08:44:17;3.17;;;0.63;;
74959;SDS011;63518;49.572;1.106;2023-11-22T08:46:44;2.38;;;0.82;;
74959;SDS011;63518;49.572;1.106;2023-11-22T08:49:12;3.33;;;1.17;;
74959;SDS011;63518;49.572;1.106;2023-11-22T08:51:41;8.00;;;1.95;;
74959;SDS011;63518;49.572;1.106;2023-11-22T08:54:09;5.80;;;1.48;;
74959;SDS011;63518;49.572;1.106;2023-11-22T08:56:36;3.58;;;0.98;;
74959;SDS011;63518;49.572;1.106;2023-11-22T08:59:02;5.88;;;1.17;;
74959;SDS011;63518;49.572;1.106;2023-11-22T09:01:31;5.15;;;1.73;;
74959;SDS011;63518;49.572;1.106;2023-11-22T09:03:58;5.05;;;1.38;;
74959;SDS011;63518;49.572;1.106;2023-11-22T09:06:25;5.60;;;1.50;;
74959;SDS011;63518;49.572;1.106;2023-11-22T09:08:52;5.72;;;1.38;;
74959;SDS011;63518;49.572;1.106;2023-11-22T09:11:18;5.13;;;1.48;;
74959;SDS011;63518;49.572;1.106;2023-11-22T09:13:48;5.25;;;2.03;;
74959;SDS011;63518;49.572;1.106;2023-11-22T09:16:16;4.55;;;1.58;;
74959;SDS011;63518;49.572;1.106;2023-11-22T09:18:46;5.53;;;1.75;;
74959;SDS011;63518;49.572;1.106;2023-11-22T09:21:12;7.25;;;2.47;;
74959;SDS011;63518;49.572;1.106;2023-11-22T09:23:43;6.50;;;2.55;;
74959;SDS011;63518;49.572;1.106;2023-11-22T09:26:10;6.60;;;2.35;;
74959;SDS011;63518;49.572;1.106;2023-11-22T09:28:37;8.98;;;2.70;;
74959;SDS011;63518;49.572;1.106;2023-11-22T09:31:05;7.55;;;2.50;;
74959;SDS011;63518;49.572;1.106;2023-11-22T09:33:33;6.82;;;2.08;;
74959;SDS011;63518;49.572;1.106;2023-11-22T09:35:59;8.65;;;2.30;;
74959;SDS011;63518;49.572;1.106;2023-11-22T09:38:26;6.32;;;2.28;;
74959;SDS011;63518;49.572;1.106;2023-11-22T09:40:53;9.82;;;3.10;;
74959;SDS011;63518;49.572;1.106;2023-11-22T09:43:20;6.43;;;2.35;;
74959;SDS011;63518;49.572;1.106;2023-11-22T09:45:48;7.22;;;2.05;;
74959;SDS011;63518;49.572;1.106;2023-11-22T09:48:23;7.43;;;2.25;;
74959;SDS011;63518;49.572;1.106;2023-11-22T09:53:32;6.35;;;2.20;;
74959;SDS011;63518;49.572;1.106;2023-11-22T09:56:01;6.05;;;1.70;;
74959;SDS011;63518;49.572;1.106;2023-11-22T09:58:30;7.28;;;2.00;;
74959;SDS011;63518;49.572;1.106;2023-11-22T10:01:00;5.63;;;1.95;;
74959;SDS011;63518;49.572;1.106;2023-11-22T10:03:28;6.45;;;2.60;;
74959;SDS011;63518;49.572;1.106;2023-11-22T10:05:57;7.30;;;2.08;;
74959;SDS011;63518;49.572;1.106;2023-11-22T10:08:30;6.82;;;2.40;;
74959;SDS011;63518;49.572;1.106;2023-11-22T10:10:58;8.18;;;2.90;;
74959;SDS011;63518;49.572;1.106;2023-11-22T10:13:26;7.38;;;2.22;;
74959;SDS011;63518;49.572;1.106;2023-11-22T10:15:53;5.05;;;1.45;;
74959;SDS011;63518;49.572;1.106;2023-11-22T10:18:20;5.18;;;1.98;;
74959;SDS011;63518;49.572;1.106;2023-11-22T10:20:48;2.03;;;0.70;;
74959;SDS011;63518;49.572;1.106;2023-11-22T10:23:16;7.13;;;2.05;;
74959;SDS011;63518;49.572;1.106;2023-11-22T10:25:44;5.30;;;1.73;;
74959;SDS011;63518;49.572;1.106;2023-11-22T10:28:18;5.32;;;1.65;;
74959;SDS011;63518;49.572;1.106;2023-11-22T10:30:50;5.40;;;2.08;;
74959;SDS011;63518;49.572;1.106;2023-11-22T10:33:18;6.72;;;2.13;;
74959;SDS011;63518;49.572;1.106;2023-11-22T10:35:49;4.68;;;1.45;;
74959;SDS011;63518;49.572;1.106;2023-11-22T10:38:20;5.57;;;1.23;;
74959;SDS011;63518;49.572;1.106;2023-11-22T10:40:47;5.10;;;2.10;;
74959;SDS011;63518;49.572;1.106;2023-11-22T10:43:17;5.28;;;1.42;;
74959;SDS011;63518;49.572;1.106;2023-11-22T10:45:44;3.58;;;1.02;;
74959;SDS011;63518;49.572;1.106;2023-11-22T10:48:15;5.22;;;1.58;;
74959;SDS011;63518;49.572;1.106;2023-11-22T10:50:43;4.80;;;1.20;;
74959;SDS011;63518;49.572;1.106;2023-11-22T10:53:11;6.15;;;1.85;;
74959;SDS011;63518;49.572;1.106;2023-11-22T10:55:42;6.63;;;1.50;;
74959;SDS011;63518;49.572;1.106;2023-11-22T10:58:15;4.88;;;1.83;;
74959;SDS011;63518;49.572;1.106;2023-11-22T11:00:43;5.18;;;1.75;;
74959;SDS011;63518;49.572;1.106;2023-11-22T11:03:19;6.90;;;1.98;;
74959;SDS011;63518;49.572;1.106;2023-11-22T11:05:58;5.20;;;1.80;;
74959;SDS011;63518;49.572;1.106;2023-11-22T11:08:26;4.78;;;1.52;;
74959;SDS011;63518;49.572;1.106;2023-11-22T11:10:54;4.85;;;1.73;;
74959;SDS011;63518;49.572;1.106;2023-11-22T11:13:22;4.47;;;1.35;;
74959;SDS011;63518;49.572;1.106;2023-11-22T11:15:52;5.30;;;1.42;;
74959;SDS011;63518;49.572;1.106;2023-11-22T11:18:20;5.35;;;1.73;;
74959;SDS011;63518;49.572;1.106;2023-11-22T11:20:50;5.30;;;1.98;;
74959;SDS011;63518;49.572;1.106;2023-11-22T11:23:19;4.57;;;1.33;;
74959;SDS011;63518;49.572;1.106;2023-11-22T11:25:55;4.28;;;1.20;;
74959;SDS011;63518;49.572;1.106;2023-11-22T11:28:24;3.35;;;1.02;;
74959;SDS011;63518;49.572;1.106;2023-11-22T11:30:53;3.47;;;1.02;;
74959;SDS011;63518;49.572;1.106;2023-11-22T11:33:33;4.43;;;0.82;;
74959;SDS011;63518;49.572;1.106;2023-11-22T11:36:01;4.00;;;1.20;;
74959;SDS011;63518;49.572;1.106;2023-11-22T11:38:39;4.82;;;1.10;;
74959;SDS011;63518;49.572;1.106;2023-11-22T11:41:09;2.08;;;0.85;;
74959;SDS011;63518;49.572;1.106;2023-11-22T11:43:41;3.75;;;0.85;;
74959;SDS011;63518;49.572;1.106;2023-11-22T11:46:10;3.28;;;0.85;;
74959;SDS011;63518;49.572;1.106;2023-11-22T11:48:42;2.13;;;0.73;;
74959;SDS011;63518;49.572;1.106;2023-11-22T11:51:13;3.53;;;1.10;;
74959;SDS011;63518;49.572;1.106;2023-11-22T11:53:41;3.10;;;0.90;;
74959;SDS011;63518;49.572;1.106;2023-11-22T11:56:08;3.13;;;1.05;;
74959;SDS011;63518;49.572;1.106;2023-11-22T11:58:36;4.05;;;1.30;;
74959;SDS011;63518;49.572;1.106;2023-11-22T12:01:06;2.90;;;0.88;;
74959;SDS011;63518;49.572;1.106;2023-11-22T12:03:35;4.03;;;1.15;;
74959;SDS011;63518;49.572;1.106;2023-11-22T12:06:02;5.05;;;1.80;;
74959;SDS011;63518;49.572;1.106;2023-11-22T12:08:30;4.20;;;1.02;;
74959;SDS011;63518;49.572;1.106;2023-11-22T12:11:02;3.50;;;0.93;;
74959;SDS011;63518;49.572;1.106;2023-11-22T12:13:37;4.65;;;0.90;;
74959;SDS011;63518;49.572;1.106;2023-11-22T12:16:05;2.65;;;0.80;;
74959;SDS011;63518;49.572;1.106;2023-11-22T12:18:40;4.20;;;1.30;;
74959;SDS011;63518;49.572;1.106;2023-11-22T12:21:11;4.38;;;0.95;;
74959;SDS011;63518;49.572;1.106;2023-11-22T12:23:39;3.92;;;1.33;;
74959;SDS011;63518;49.572;1.106;2023-11-22T12:26:14;3.38;;;0.90;;
74959;SDS011;63518;49.572;1.106;2023-11-22T12:28:45;2.67;;;0.75;;
74959;SDS011;63518;49.572;1.106;2023-11-22T12:31:26;3.70;;;1.10;;
74959;SDS011;63518;49.572;1.106;2023-11-22T12:33:56;3.67;;;1.10;;
74959;SDS011;63518;49.572;1.106;2023-11-22T12:36:23;3.85;;;0.88;;
74959;SDS011;63518;49.572;1.106;2023-11-22T12:38:50;4.30;;;1.23;;
74959;SDS011;63518;49.572;1.106;2023-11-22T12:41:16;3.88;;;1.17;;
74959;SDS011;63518;49.572;1.106;2023-11-22T12:43:44;3.42;;;0.90;;
74959;SDS011;63518;49.572;1.106;2023-11-22T12:46:28;4.93;;;1.52;;
74959;SDS011;63518;49.572;1.106;2023-11-22T12:49:10;5.00;;;1.40;;
74959;SDS011;63518;49.572;1.106;2023-11-22T12:51:37;4.55;;;1.30;;
74959;SDS011;63518;49.572;1.106;2023-11-22T12:54:04;4.82;;;1.30;;
74959;SDS011;63518;49.572;1.106;2023-11-22T12:56:31;4.50;;;1.33;;
74959;SDS011;63518;49.572;1.106;2023-11-22T12:58:57;4.35;;;1.30;;
74959;SDS011;63518;49.572;1.106;2023-11-22T13:01:25;5.50;;;1.23;;
74959;SDS011;63518;49.572;1.106;2023-11-22T13:03:54;5.60;;;2.00;;
74959;SDS011;63518;49.572;1.106;2023-11-22T13:06:21;5.28;;;1.63;;
74959;SDS011;63518;49.572;1.106;2023-11-22T13:08:51;5.75;;;1.63;;
74959;SDS011;63518;49.572;1.106;2023-11-22T13:11:20;4.25;;;1.25;;
74959;SDS011;63518;49.572;1.106;2023-11-22T13:13:48;4.45;;;1.30;;
74959;SDS011;63518;49.572;1.106;2023-11-22T13:16:14;3.88;;;0.93;;
74959;SDS011;63518;49.572;1.106;2023-11-22T13:18:42;5.85;;;1.67;;
74959;SDS011;63518;49.572;1.106;2023-11-22T13:21:09;4.82;;;1.25;;
74959;SDS011;63518;49.572;1.106;2023-11-22T13:23:36;5.10;;;1.63;;
74959;SDS011;63518;49.572;1.106;2023-11-22T13:26:02;6.15;;;1.70;;
74959;SDS011;63518;49.572;1.106;2023-11-22T13:28:32;4.20;;;1.20;;
74959;SDS011;63518;49.572;1.106;2023-11-22T13:30:58;4.25;;;1.38;;
74959;SDS011;63518;49.572;1.106;2023-11-22T13:33:25;5.88;;;1.50;;
74959;SDS011;63518;49.572;1.106;2023-11-22T13:35:53;3.92;;;0.90;;
74959;SDS011;63518;49.572;1.106;2023-11-22T13:38:20;4.38;;;1.23;;
74959;SDS011;63518;49.572;1.106;2023-11-22T13:40:47;4.10;;;1.27;;
74959;SDS011;63518;49.572;1.106;2023-11-22T13:43:13;3.70;;;1.38;;
74959;SDS011;63518;49.572;1.106;2023-11-22T13:45:40;4.03;;;1.13;;
74959;SDS011;63518;49.572;1.106;2023-11-22T13:48:07;4.32;;;1.20;;
74959;SDS011;63518;49.572;1.106;2023-11-22T13:50:36;4.60;;;1.15;;
74959;SDS011;63518;49.572;1.106;2023-11-22T13:53:03;5.32;;;1.10;;
74959;SDS011;63518;49.572;1.106;2023-11-22T13:55:30;3.13;;;0.88;;
74959;SDS011;63518;49.572;1.106;2023-11-22T13:57:59;4.00;;;1.08;;
74959;SDS011;63518;49.572;1.106;2023-11-22T14:00:27;4.68;;;1.20;;
74959;SDS011;63518;49.572;1.106;2023-11-22T14:02:59;6.20;;;1.33;;
74959;SDS011;63518;49.572;1.106;2023-11-22T14:05:35;4.00;;;1.00;;
74959;SDS011;63518;49.572;1.106;2023-11-22T14:08:04;3.25;;;0.93;;
74959;SDS011;63518;49.572;1.106;2023-11-22T14:10:32;3.88;;;1.25;;
74959;SDS011;63518;49.572;1.106;2023-11-22T14:13:00;5.00;;;1.20;;
74959;SDS011;63518;49.572;1.106;2023-11-22T14:15:28;4.55;;;1.52;;
74959;SDS011;63518;49.572;1.106;2023-11-22T14:17:55;3.85;;;1.10;;
74959;SDS011;63518;49.572;1.106;2023-11-22T14:20:22;5.43;;;1.38;;
74959;SDS011;63518;49.572;1.106;2023-11-22T14:22:48;4.03;;;1.38;;
74959;SDS011;63518;49.572;1.106;2023-11-22T14:25:15;5.85;;;1.30;;
74959;SDS011;63518;49.572;1.106;2023-11-22T14:27:43;4.50;;;1.15;;
74959;SDS011;63518;49.572;1.106;2023-11-22T14:30:12;4.25;;;1.20;;
74959;SDS011;63518;49.572;1.106;2023-11-22T14:32:44;3.53;;;0.95;;
74959;SDS011;63518;49.572;1.106;2023-11-22T14:35:11;4.20;;;1.40;;
74959;SDS011;63518;49.572;1.106;2023-11-22T14:37:39;4.25;;;1.20;;
74959;SDS011;63518;49.572;1.106;2023-11-22T14:40:06;3.78;;;1.13;;
74959;SDS011;63518;49.572;1.106;2023-11-22T14:42:41;5.85;;;1.30;;
74959;SDS011;63518;49.572;1.106;2023-11-22T14:45:08;5.90;;;1.73;;
74959;SDS011;63518;49.572;1.106;2023-11-22T14:47:38;5.03;;;1.48;;
74959;SDS011;63518;49.572;1.106;2023-11-22T14:50:06;4.30;;;1.33;;
74959;SDS011;63518;49.572;1.106;2023-11-22T14:52:37;5.50;;;1.83;;